Alfenas, Brazil
Current Conditions -  °F | °C
As of 12:00 PM on Friday 28 Nov 2014 (Local Time) from SBPC Reporting Station
Broken Clouds Broken Clouds  
Wind Chill: 75°   Ceiling: 7000
Heat Index: 75°   Visibility: 6mi
Dew Point: 66°   Wind: 5mph
Humidity: 73%   Direction: 50°NE
Pressure: 30.15"   Gusts: NA
Location:  21.41°S, 45.95°W
Report Text: SBPC 281400Z 05004KT 9999 SCT017 FEW025TCU BKN070 24/19 Q1021
Loading
Personal Weather Stations






























Interactive Weather Map New forecast layout! Learn more

10-Day Weather Forecast

Advertisements
Track Severe Weather on mobile